sensor_id;sensor_type;location;lat;lon;timestamp;pressure;altitude;pressure_sealevel;temperature;humidity
71666;BME280;59503;53.486;10.196;2023-03-04T00:01:40;102094.59;;;4.96;100.00
71666;BME280;59503;53.486;10.196;2023-03-04T00:04:05;102093.56;;;4.92;100.00
71666;BME280;59503;53.486;10.196;2023-03-04T00:06:31;102094.75;;;5.05;100.00
71666;BME280;59503;53.486;10.196;2023-03-04T00:08:56;102087.63;;;4.95;100.00
71666;BME280;59503;53.486;10.196;2023-03-04T00:11:22;102091.63;;;4.98;100.00
71666;BME280;59503;53.486;10.196;2023-03-04T00:13:47;102101.72;;;5.06;100.00
71666;BME280;59503;53.486;10.196;2023-03-04T00:16:12;102086.75;;;5.00;100.00
71666;BME280;59503;53.486;10.196;2023-03-04T00:18:38;102096.50;;;4.96;100.00
71666;BME280;59503;53.486;10.196;2023-03-04T00:21:03;102086.88;;;5.08;100.00
71666;BME280;59503;53.486;10.196;2023-03-04T00:23:29;102092.56;;;5.07;100.00
71666;BME280;59503;53.486;10.196;2023-03-04T00:25:54;102093.06;;;5.09;100.00
71666;BME280;59503;53.486;10.196;2023-03-04T00:28:19;102098.41;;;5.14;100.00
71666;BME280;59503;53.486;10.196;2023-03-04T00:30:45;102086.06;;;5.08;100.00
71666;BME280;59503;53.486;10.196;2023-03-04T00:33:10;102072.53;;;5.13;100.00
71666;BME280;59503;53.486;10.196;2023-03-04T00:35:36;102079.59;;;5.09;100.00
71666;BME280;59503;53.486;10.196;2023-03-04T00:38:01;102070.94;;;5.12;100.00
71666;BME280;59503;53.486;10.196;2023-03-04T00:40:27;102079.88;;;5.07;100.00
71666;BME280;59503;53.486;10.196;2023-03-04T00:42:52;102070.94;;;5.12;100.00
71666;BME280;59503;53.486;10.196;2023-03-04T00:45:17;102063.41;;;5.09;100.00
71666;BME280;59503;53.486;10.196;2023-03-04T00:47:43;102069.84;;;5.13;100.00
71666;BME280;59503;53.486;10.196;2023-03-04T00:50:09;102063.22;;;5.24;100.00
71666;BME280;59503;53.486;10.196;2023-03-04T00:52:34;102066.63;;;5.11;100.00
71666;BME280;59503;53.486;10.196;2023-03-04T00:55:00;102053.16;;;5.11;100.00
71666;BME280;59503;53.486;10.196;2023-03-04T00:57:25;102047.75;;;5.11;100.00
71666;BME280;59503;53.486;10.196;2023-03-04T00:59:51;102049.38;;;5.12;100.00
71666;BME280;59503;53.486;10.196;2023-03-04T01:02:16;102050.00;;;5.23;100.00
71666;BME280;59503;53.486;10.196;2023-03-04T01:04:42;102059.41;;;5.25;100.00
71666;BME280;59503;53.486;10.196;2023-03-04T01:07:08;102050.81;;;5.23;100.00
71666;BME280;59503;53.486;10.196;2023-03-04T01:09:33;102043.22;;;5.25;100.00
71666;BME280;59503;53.486;10.196;2023-03-04T01:11:58;102044.91;;;5.21;100.00
71666;BME280;59503;53.486;10.196;2023-03-04T01:14:24;102048.03;;;5.28;100.00
71666;BME280;59503;53.486;10.196;2023-03-04T01:16:49;102043.22;;;5.25;100.00
71666;BME280;59503;53.486;10.196;2023-03-04T01:19:15;102052.22;;;5.21;100.00
71666;BME280;59503;53.486;10.196;2023-03-04T01:21:40;102042.13;;;5.26;100.00
71666;BME280;59503;53.486;10.196;2023-03-04T01:24:05;102025.88;;;5.31;100.00
71666;BME280;59503;53.486;10.196;2023-03-04T01:26:31;102028.25;;;5.19;100.00
71666;BME280;59503;53.486;10.196;2023-03-04T01:28:56;102024.97;;;5.22;100.00
71666;BME280;59503;53.486;10.196;2023-03-04T01:31:22;102029.16;;;5.28;100.00
71666;BME280;59503;53.486;10.196;2023-03-04T01:33:47;102021.25;;;5.18;100.00
71666;BME280;59503;53.486;10.196;2023-03-04T01:36:12;102021.47;;;5.22;100.00
71666;BME280;59503;53.486;10.196;2023-03-04T01:38:38;102009.88;;;5.21;100.00
71666;BME280;59503;53.486;10.196;2023-03-04T01:41:04;102017.56;;;5.14;100.00
71666;BME280;59503;53.486;10.196;2023-03-04T01:43:30;102014.69;;;5.24;100.00
71666;BME280;59503;53.486;10.196;2023-03-04T01:45:56;102007.69;;;5.23;100.00
71666;BME280;59503;53.486;10.196;2023-03-04T01:48:28;102008.09;;;5.30;100.00
71666;BME280;59503;53.486;10.196;2023-03-04T01:50:55;102010.38;;;5.23;100.00
71666;BME280;59503;53.486;10.196;2023-03-04T01:53:23;102002.97;;;5.15;100.00
71666;BME280;59503;53.486;10.196;2023-03-04T01:55:51;101997.06;;;5.13;100.00
71666;BME280;59503;53.486;10.196;2023-03-04T01:58:18;101995.69;;;5.16;100.00
71666;BME280;59503;53.486;10.196;2023-03-04T02:00:45;101988.09;;;5.18;100.00
71666;BME280;59503;53.486;10.196;2023-03-04T02:03:13;101991.28;;;5.20;100.00
71666;BME280;59503;53.486;10.196;2023-03-04T02:05:42;101968.53;;;5.12;100.00
71666;BME280;59503;53.486;10.196;2023-03-04T02:08:09;101987.91;;;5.14;100.00
71666;BME280;59503;53.486;10.196;2023-03-04T02:10:36;101982.09;;;5.07;100.00
71666;BME280;59503;53.486;10.196;2023-03-04T02:13:06;101981.09;;;5.17;100.00
71666;BME280;59503;53.486;10.196;2023-03-04T02:15:32;101976.53;;;5.17;100.00
71666;BME280;59503;53.486;10.196;2023-03-04T02:17:57;101970.53;;;5.20;100.00
71666;BME280;59503;53.486;10.196;2023-03-04T02:25:32;101968.94;;;5.19;100.00
71666;BME280;59503;53.486;10.196;2023-03-04T02:27:57;101961.94;;;5.18;100.00
71666;BME280;59503;53.486;10.196;2023-03-04T02:30:23;101960.06;;;5.19;100.00
71666;BME280;59503;53.486;10.196;2023-03-04T02:32:52;101954.78;;;5.27;100.00
71666;BME280;59503;53.486;10.196;2023-03-04T02:35:18;101950.00;;;5.24;100.00
71666;BME280;59503;53.486;10.196;2023-03-04T02:37:44;101953.59;;;5.33;100.00
71666;BME280;59503;53.486;10.196;2023-03-04T02:40:17;101946.78;;;5.22;100.00
71666;BME280;59503;53.486;10.196;2023-03-04T02:42:45;101939.78;;;5.21;100.00
71666;BME280;59503;53.486;10.196;2023-03-04T02:45:36;101944.97;;;5.18;100.00
71666;BME280;59503;53.486;10.196;2023-03-04T02:48:02;101948.16;;;5.20;100.00
71666;BME280;59503;53.486;10.196;2023-03-04T02:50:30;101931.91;;;5.25;100.00
71666;BME280;59503;53.486;10.196;2023-03-04T02:52:58;101934.50;;;5.30;100.00
71666;BME280;59503;53.486;10.196;2023-03-04T02:55:23;101939.81;;;5.35;100.00
71666;BME280;59503;53.486;10.196;2023-03-04T02:57:48;101928.81;;;5.31;100.00
71666;BME280;59503;53.486;10.196;2023-03-04T03:00:14;101919.06;;;5.35;100.00
71666;BME280;59503;53.486;10.196;2023-03-04T03:02:40;101922.63;;;5.17;100.00
71666;BME280;59503;53.486;10.196;2023-03-04T03:05:06;101929.81;;;5.22;100.00
71666;BME280;59503;53.486;10.196;2023-03-04T03:07:31;101923.44;;;5.31;100.00
71666;BME280;59503;53.486;10.196;2023-03-04T03:09:59;101914.97;;;5.24;100.00
71666;BME280;59503;53.486;10.196;2023-03-04T03:12:25;101914.66;;;5.26;100.00
71666;BME280;59503;53.486;10.196;2023-03-04T03:14:50;101921.94;;;5.25;100.00
71666;BME280;59503;53.486;10.196;2023-03-04T03:17:16;101916.22;;;5.13;100.00
71666;BME280;59503;53.486;10.196;2023-03-04T03:19:41;101913.03;;;5.25;100.00
71666;BME280;59503;53.486;10.196;2023-03-04T03:22:07;101915.06;;;5.19;100.00
71666;BME280;59503;53.486;10.196;2023-03-04T03:24:32;101913.94;;;5.20;100.00
71666;BME280;59503;53.486;10.196;2023-03-04T03:26:57;101905.84;;;5.20;100.00
71666;BME280;59503;53.486;10.196;2023-03-04T03:29:23;101912.63;;;5.18;100.00
71666;BME280;59503;53.486;10.196;2023-03-04T03:31:48;101923.13;;;5.19;100.00
71666;BME280;59503;53.486;10.196;2023-03-04T03:34:14;101900.66;;;5.24;100.00
71666;BME280;59503;53.486;10.196;2023-03-04T03:36:39;101912.34;;;5.19;100.00
71666;BME280;59503;53.486;10.196;2023-03-04T03:39:04;101915.63;;;5.30;100.00
71666;BME280;59503;53.486;10.196;2023-03-04T03:41:30;101908.88;;;5.32;100.00
71666;BME280;59503;53.486;10.196;2023-03-04T03:43:55;101908.88;;;5.32;100.00
71666;BME280;59503;53.486;10.196;2023-03-04T03:46:21;101908.38;;;5.30;100.00
71666;BME280;59503;53.486;10.196;2023-03-04T03:48:46;101896.66;;;5.21;100.00
71666;BME280;59503;53.486;10.196;2023-03-04T03:51:12;101901.56;;;5.33;100.00
71666;BME280;59503;53.486;10.196;2023-03-04T03:53:37;101892.19;;;5.30;100.00
71666;BME280;59503;53.486;10.196;2023-03-04T03:56:03;101893.88;;;5.40;100.00
71666;BME280;59503;53.486;10.196;2023-03-04T03:58:28;101895.31;;;5.37;100.00
71666;BME280;59503;53.486;10.196;2023-03-04T04:00:53;101890.09;;;5.27;100.00
71666;BME280;59503;53.486;10.196;2023-03-04T04:03:19;101896.09;;;5.24;100.00
71666;BME280;59503;53.486;10.196;2023-03-04T04:05:45;101890.59;;;5.16;100.00
71666;BME280;59503;53.486;10.196;2023-03-04T04:08:15;101891.47;;;5.25;100.00
71666;BME280;59503;53.486;10.196;2023-03-04T04:10:41;101891.47;;;5.25;100.00
71666;BME280;59503;53.486;10.196;2023-03-04T04:13:07;101884.59;;;5.19;100.00
71666;BME280;59503;53.486;10.196;2023-03-04T04:15:32;101881.09;;;5.18;100.00
71666;BME280;59503;53.486;10.196;2023-03-04T04:17:58;101879.09;;;5.24;100.00
71666;BME280;59503;53.486;10.196;2023-03-04T04:20:23;101879.31;;;5.27;100.00
71666;BME280;59503;53.486;10.196;2023-03-04T04:22:49;101883.47;;;5.20;100.00
71666;BME280;59503;53.486;10.196;2023-03-04T04:25:14;101887.09;;;5.29;100.00
71666;BME280;59503;53.486;10.196;2023-03-04T04:27:39;101881.00;;;5.23;100.00
71666;BME280;59503;53.486;10.196;2023-03-04T04:30:05;101889.59;;;5.25;100.00
71666;BME280;59503;53.486;10.196;2023-03-04T04:32:31;101880.59;;;5.16;100.00
71666;BME280;59503;53.486;10.196;2023-03-04T04:34:56;101886.28;;;5.28;100.00
71666;BME280;59503;53.486;10.196;2023-03-04T04:37:22;101878.50;;;5.27;100.00
71666;BME280;59503;53.486;10.196;2023-03-04T04:39:47;101869.41;;;5.23;100.00
71666;BME280;59503;53.486;10.196;2023-03-04T04:42:12;101865.94;;;5.22;100.00
71666;BME280;59503;53.486;10.196;2023-03-04T04:44:38;101877.31;;;5.19;100.00
71666;BME280;59503;53.486;10.196;2023-03-04T04:47:05;101881.72;;;5.29;100.00
71666;BME280;59503;53.486;10.196;2023-03-04T04:49:31;101878.22;;;5.28;100.00
71666;BME280;59503;53.486;10.196;2023-03-04T04:51:56;101861.44;;;5.31;100.00
71666;BME280;59503;53.486;10.196;2023-03-04T04:54:22;101868.75;;;5.31;100.00
71666;BME280;59503;53.486;10.196;2023-03-04T04:56:47;101867.22;;;5.38;100.00
71666;BME280;59503;53.486;10.196;2023-03-04T04:59:13;101867.72;;;5.40;100.00
71666;BME280;59503;53.486;10.196;2023-03-04T05:01:38;101858.06;;;5.39;100.00
71666;BME280;59503;53.486;10.196;2023-03-04T05:04:04;101871.34;;;5.36;100.00
71666;BME280;59503;53.486;10.196;2023-03-04T05:06:29;101864.13;;;5.31;100.00
71666;BME280;59503;53.486;10.196;2023-03-04T05:08:55;101859.13;;;5.38;100.00
71666;BME280;59503;53.486;10.196;2023-03-04T05:11:20;101858.25;;;5.29;100.00
71666;BME280;59503;53.486;10.196;2023-03-04T05:13:47;101853.13;;;5.28;100.00
71666;BME280;59503;53.486;10.196;2023-03-04T05:16:12;101858.53;;;5.28;100.00
71666;BME280;59503;53.486;10.196;2023-03-04T05:18:38;101847.56;;;5.24;100.00
71666;BME280;59503;53.486;10.196;2023-03-04T05:21:04;101867.53;;;5.23;100.00
71666;BME280;59503;53.486;10.196;2023-03-04T05:23:32;101859.53;;;5.32;100.00
71666;BME280;59503;53.486;10.196;2023-03-04T05:25:59;101849.16;;;5.39;100.00
71666;BME280;59503;53.486;10.196;2023-03-04T05:28:24;101865.75;;;5.32;100.00
71666;BME280;59503;53.486;10.196;2023-03-04T05:30:49;101852.75;;;5.34;100.00
71666;BME280;59503;53.486;10.196;2023-03-04T05:33:16;101861.06;;;5.24;100.00
71666;BME280;59503;53.486;10.196;2023-03-04T05:35:42;101857.16;;;5.30;100.00
71666;BME280;59503;53.486;10.196;2023-03-04T05:38:11;101861.22;;;5.28;100.00
71666;BME280;59503;53.486;10.196;2023-03-04T05:40:37;101861.13;;;5.33;100.00
71666;BME280;59503;53.486;10.196;2023-03-04T05:43:03;101856.22;;;5.21;100.00
71666;BME280;59503;53.486;10.196;2023-03-04T05:45:28;101861.53;;;5.26;100.00
71666;BME280;59503;53.486;10.196;2023-03-04T05:47:54;101859.44;;;5.23;100.00
71666;BME280;59503;53.486;10.196;2023-03-04T05:50:21;101864.91;;;5.18;100.00
71666;BME280;59503;53.486;10.196;2023-03-04T05:52:48;101859.22;;;5.06;100.00
71666;BME280;59503;53.486;10.196;2023-03-04T05:55:15;101863.53;;;5.07;100.00
71666;BME280;59503;53.486;10.196;2023-03-04T05:57:40;101866.69;;;5.09;100.00
71666;BME280;59503;53.486;10.196;2023-03-04T06:00:07;101867.38;;;5.01;100.00
71666;BME280;59503;53.486;10.196;2023-03-04T06:02:36;101863.09;;;5.00;100.00
71666;BME280;59503;53.486;10.196;2023-03-04T06:05:02;101863.19;;;4.95;100.00
71666;BME280;59503;53.486;10.196;2023-03-04T06:07:28;101866.88;;;4.99;100.00
71666;BME280;59503;53.486;10.196;2023-03-04T06:09:54;101866.19;;;4.93;100.00
71666;BME280;59503;53.486;10.196;2023-03-04T06:12:19;101865.06;;;4.94;100.00
71666;BME280;59503;53.486;10.196;2023-03-04T06:14:45;101867.69;;;4.99;100.00
71666;BME280;59503;53.486;10.196;2023-03-04T06:17:10;101865.88;;;4.95;100.00
71666;BME280;59503;53.486;10.196;2023-03-04T06:19:35;101881.38;;;5.03;100.00
71666;BME280;59503;53.486;10.196;2023-03-04T06:22:03;101872.09;;;4.95;100.00
71666;BME280;59503;53.486;10.196;2023-03-04T06:24:28;101871.19;;;5.00;100.00
71666;BME280;59503;53.486;10.196;2023-03-04T06:26:54;101880.84;;;5.01;98.93
71666;BME280;59503;53.486;10.196;2023-03-04T06:29:19;101865.00;;;4.99;95.22
71666;BME280;59503;53.486;10.196;2023-03-04T06:31:44;101880.25;;;5.04;94.49
71666;BME280;59503;53.486;10.196;2023-03-04T06:34:10;101899.63;;;5.06;94.82
71666;BME280;59503;53.486;10.196;2023-03-04T06:36:36;101882.88;;;4.95;92.78
71666;BME280;59503;53.486;10.196;2023-03-04T06:39:06;101892.03;;;4.94;91.77
71666;BME280;59503;53.486;10.196;2023-03-04T06:41:32;101900.81;;;5.00;91.47
71666;BME280;59503;53.486;10.196;2023-03-04T06:43:57;101884.25;;;4.93;92.61
71666;BME280;59503;53.486;10.196;2023-03-04T06:46:23;101894.41;;;4.96;91.67
71666;BME280;59503;53.486;10.196;2023-03-04T06:48:48;101907.19;;;4.90;92.49
71666;BME280;59503;53.486;10.196;2023-03-04T06:51:15;101905.88;;;4.88;90.39
71666;BME280;59503;53.486;10.196;2023-03-04T06:53:40;101902.16;;;4.84;90.63
71666;BME280;59503;53.486;10.196;2023-03-04T06:56:07;101900.78;;;4.86;90.16
71666;BME280;59503;53.486;10.196;2023-03-04T06:58:33;101906.84;;;4.78;91.14
71666;BME280;59503;53.486;10.196;2023-03-04T07:03:35;101913.81;;;4.79;92.14
71666;BME280;59503;53.486;10.196;2023-03-04T07:06:00;101908.56;;;4.88;91.63
71666;BME280;59503;53.486;10.196;2023-03-04T07:08:26;101894.38;;;4.82;91.60
71666;BME280;59503;53.486;10.196;2023-03-04T07:10:51;101906.19;;;4.86;91.89
71666;BME280;59503;53.486;10.196;2023-03-04T07:13:16;101903.34;;;4.78;91.76
71666;BME280;59503;53.486;10.196;2023-03-04T07:15:42;101904.47;;;4.77;94.04
71666;BME280;59503;53.486;10.196;2023-03-04T07:18:07;101911.94;;;4.80;94.08
71666;BME280;59503;53.486;10.196;2023-03-04T07:20:32;101909.69;;;4.87;93.99
71666;BME280;59503;53.486;10.196;2023-03-04T07:22:58;101913.16;;;4.87;93.85
71666;BME280;59503;53.486;10.196;2023-03-04T07:25:23;101905.03;;;4.74;95.24
71666;BME280;59503;53.486;10.196;2023-03-04T07:27:49;101912.38;;;4.87;94.36
71666;BME280;59503;53.486;10.196;2023-03-04T07:30:14;101914.16;;;4.91;94.53
71666;BME280;59503;53.486;10.196;2023-03-04T07:32:39;101921.16;;;4.92;94.15
71666;BME280;59503;53.486;10.196;2023-03-04T07:35:05;101916.56;;;4.93;94.51
71666;BME280;59503;53.486;10.196;2023-03-04T07:37:31;101907.38;;;4.94;95.33
71666;BME280;59503;53.486;10.196;2023-03-04T07:39:56;101921.78;;;5.03;94.33
71666;BME280;59503;53.486;10.196;2023-03-04T07:42:21;101915.47;;;4.94;95.16
71666;BME280;59503;53.486;10.196;2023-03-04T07:44:47;101914.81;;;5.02;94.64
71666;BME280;59503;53.486;10.196;2023-03-04T07:47:12;101916.00;;;5.09;93.04
71666;BME280;59503;53.486;10.196;2023-03-04T07:49:38;101922.88;;;5.02;92.81
71666;BME280;59503;53.486;10.196;2023-03-04T07:52:04;101915.63;;;4.84;94.04
71666;BME280;59503;53.486;10.196;2023-03-04T07:54:29;101913.97;;;4.88;93.75
71666;BME280;59503;53.486;10.196;2023-03-04T07:56:55;101925.84;;;4.87;93.91
71666;BME280;59503;53.486;10.196;2023-03-04T07:59:21;101926.75;;;4.96;93.72
71666;BME280;59503;53.486;10.196;2023-03-04T08:01:46;101929.53;;;4.91;92.57
71666;BME280;59503;53.486;10.196;2023-03-04T08:04:12;101925.16;;;4.95;92.54
71666;BME280;59503;53.486;10.196;2023-03-04T08:06:39;101922.97;;;4.97;92.88
71666;BME280;59503;53.486;10.196;2023-03-04T08:09:06;101927.47;;;5.01;92.95
71666;BME280;59503;53.486;10.196;2023-03-04T08:11:33;101928.56;;;5.00;92.14
71666;BME280;59503;53.486;10.196;2023-03-04T08:13:59;101926.53;;;4.92;89.95
71666;BME280;59503;53.486;10.196;2023-03-04T08:16:25;101935.00;;;4.86;90.25
71666;BME280;59503;53.486;10.196;2023-03-04T08:18:53;101933.13;;;4.86;91.24
71666;BME280;59503;53.486;10.196;2023-03-04T08:21:19;101933.03;;;4.91;89.89
71666;BME280;59503;53.486;10.196;2023-03-04T08:23:45;101940.22;;;4.96;90.38
71666;BME280;59503;53.486;10.196;2023-03-04T08:26:17;101936.44;;;4.97;91.81
71666;BME280;59503;53.486;10.196;2023-03-04T08:28:43;101947.84;;;5.07;92.77
71666;BME280;59503;53.486;10.196;2023-03-04T08:31:11;101940.81;;;4.93;91.62
71666;BME280;59503;53.486;10.196;2023-03-04T08:33:37;101940.50;;;4.94;93.04
71666;BME280;59503;53.486;10.196;2023-03-04T08:36:02;101949.19;;;4.91;93.86
71666;BME280;59503;53.486;10.196;2023-03-04T08:38:28;101955.31;;;4.97;92.87
71666;BME280;59503;53.486;10.196;2023-03-04T08:40:55;101954.13;;;5.03;93.08
71666;BME280;59503;53.486;10.196;2023-03-04T08:43:22;101949.31;;;5.00;92.06
71666;BME280;59503;53.486;10.196;2023-03-04T08:45:48;101955.19;;;4.88;93.32
71666;BME280;59503;53.486;10.196;2023-03-04T08:48:14;101950.00;;;4.92;92.56
71666;BME280;59503;53.486;10.196;2023-03-04T08:50:40;101943.06;;;4.86;92.32
71666;BME280;59503;53.486;10.196;2023-03-04T08:53:05;101957.28;;;4.91;93.30
71666;BME280;59503;53.486;10.196;2023-03-04T08:55:31;101949.09;;;4.96;92.72
71666;BME280;59503;53.486;10.196;2023-03-04T08:57:56;101958.47;;;4.99;92.09
71666;BME280;59503;53.486;10.196;2023-03-04T09:00:22;101947.31;;;4.92;91.18
71666;BME280;59503;53.486;10.196;2023-03-04T09:02:48;101966.72;;;4.89;92.11
71666;BME280;59503;53.486;10.196;2023-03-04T09:05:13;101945.00;;;4.85;90.68
71666;BME280;59503;53.486;10.196;2023-03-04T09:07:39;101954.72;;;5.00;90.74
71666;BME280;59503;53.486;10.196;2023-03-04T09:10:05;101951.06;;;4.91;88.41
71666;BME280;59503;53.486;10.196;2023-03-04T09:12:30;101947.69;;;4.99;87.14
71666;BME280;59503;53.486;10.196;2023-03-04T09:14:55;101955.94;;;4.89;86.47
71666;BME280;59503;53.486;10.196;2023-03-04T09:17:22;101953.25;;;4.89;86.00
71666;BME280;59503;53.486;10.196;2023-03-04T09:19:47;101951.25;;;4.81;87.37
71666;BME280;59503;53.486;10.196;2023-03-04T09:22:13;101954.44;;;4.83;86.63
71666;BME280;59503;53.486;10.196;2023-03-04T09:24:38;101952.84;;;4.82;86.73
71666;BME280;59503;53.486;10.196;2023-03-04T09:27:04;101952.91;;;4.95;85.79
71666;BME280;59503;53.486;10.196;2023-03-04T09:29:29;101959.25;;;4.86;86.59
71666;BME280;59503;53.486;10.196;2023-03-04T09:31:54;101960.69;;;4.97;87.31
71666;BME280;59503;53.486;10.196;2023-03-04T09:34:20;101959.84;;;4.83;86.28
71666;BME280;59503;53.486;10.196;2023-03-04T09:36:45;101956.25;;;4.87;87.27
71666;BME280;59503;53.486;10.196;2023-03-04T09:39:11;101949.50;;;4.90;87.40
71666;BME280;59503;53.486;10.196;2023-03-04T09:41:45;101968.28;;;4.95;88.05
71666;BME280;59503;53.486;10.196;2023-03-04T09:44:21;101952.09;;;4.95;85.98
71666;BME280;59503;53.486;10.196;2023-03-04T09:46:47;101961.47;;;4.97;86.70
71666;BME280;59503;53.486;10.196;2023-03-04T09:49:15;101942.22;;;5.04;85.63
71666;BME280;59503;53.486;10.196;2023-03-04T09:52:04;101940.56;;;5.08;84.36
71666;BME280;59503;53.486;10.196;2023-03-04T09:54:54;101959.22;;;5.04;81.87
71666;BME280;59503;53.486;10.196;2023-03-04T10:00:15;101959.50;;;5.03;80.63
71666;BME280;59503;53.486;10.196;2023-03-04T10:05:25;101942.81;;;5.33;81.71
71666;BME280;59503;53.486;10.196;2023-03-04T10:07:57;101950.97;;;5.28;80.49
71666;BME280;59503;53.486;10.196;2023-03-04T10:10:29;101950.81;;;5.38;80.16
71666;BME280;59503;53.486;10.196;2023-03-04T10:12:56;101953.81;;;5.50;80.99
71666;BME280;59503;53.486;10.196;2023-03-04T10:18:02;101947.41;;;5.46;79.51
71666;BME280;59503;53.486;10.196;2023-03-04T10:20:37;101955.13;;;5.39;78.58
71666;BME280;59503;53.486;10.196;2023-03-04T10:23:12;101945.69;;;5.23;79.10
71666;BME280;59503;53.486;10.196;2023-03-04T10:25:43;101935.22;;;5.35;78.91
71666;BME280;59503;53.486;10.196;2023-03-04T10:28:20;101942.53;;;5.48;78.99
71666;BME280;59503;53.486;10.196;2023-03-04T10:33:41;101958.28;;;5.41;78.28
71666;BME280;59503;53.486;10.196;2023-03-04T10:38:47;101940.97;;;5.74;78.53
71666;BME280;59503;53.486;10.196;2023-03-04T10:41:19;101935.97;;;5.68;76.85
71666;BME280;59503;53.486;10.196;2023-03-04T10:43:50;101953.44;;;5.70;75.12
71666;BME280;59503;53.486;10.196;2023-03-04T10:46:24;101950.66;;;5.75;74.76
71666;BME280;59503;53.486;10.196;2023-03-04T10:48:52;101959.84;;;5.74;75.40
71666;BME280;59503;53.486;10.196;2023-03-04T10:51:21;101955.22;;;5.61;76.31
71666;BME280;59503;53.486;10.196;2023-03-04T10:59:32;101954.22;;;5.57;73.83
71666;BME280;59503;53.486;10.196;2023-03-04T11:02:01;101957.72;;;5.71;72.88
71666;BME280;59503;53.486;10.196;2023-03-04T11:04:35;101955.88;;;5.85;74.11
71666;BME280;59503;53.486;10.196;2023-03-04T11:07:00;101953.44;;;5.70;73.62
71666;BME280;59503;53.486;10.196;2023-03-04T11:09:30;101948.84;;;5.57;73.82
71666;BME280;59503;53.486;10.196;2023-03-04T11:12:00;101956.53;;;5.64;74.24
71666;BME280;59503;53.486;10.196;2023-03-04T11:14:35;101943.88;;;5.78;74.79
71666;BME280;59503;53.486;10.196;2023-03-04T11:17:15;101951.38;;;5.94;72.04
71666;BME280;59503;53.486;10.196;2023-03-04T11:19:44;101952.25;;;6.03;72.78
71666;BME280;59503;53.486;10.196;2023-03-04T11:22:15;101947.03;;;5.80;72.19
71666;BME280;59503;53.486;10.196;2023-03-04T11:24:42;101943.50;;;5.84;71.72
71666;BME280;59503;53.486;10.196;2023-03-04T11:27:16;101952.47;;;5.93;71.99
71666;BME280;59503;53.486;10.196;2023-03-04T11:30:03;101933.16;;;5.86;69.04
71666;BME280;59503;53.486;10.196;2023-03-04T11:32:38;101933.28;;;5.68;70.75
71666;BME280;59503;53.486;10.196;2023-03-04T11:40:43;101937.38;;;6.06;68.21
71666;BME280;59503;53.486;10.196;2023-03-04T11:43:17;101934.47;;;6.02;67.96
71666;BME280;59503;53.486;10.196;2023-03-04T11:54:16;101913.03;;;6.33;64.93
71666;BME280;59503;53.486;10.196;2023-03-04T11:56:49;101925.19;;;6.44;65.32
71666;BME280;59503;53.486;10.196;2023-03-04T12:08:12;101914.03;;;6.23;67.46
71666;BME280;59503;53.486;10.196;2023-03-04T12:11:01;101916.47;;;6.47;68.11
71666;BME280;59503;53.486;10.196;2023-03-04T12:27:24;101892.03;;;6.52;67.71
71666;BME280;59503;53.486;10.196;2023-03-04T12:29:58;101882.81;;;6.31;68.90
71666;BME280;59503;53.486;10.196;2023-03-04T12:35:17;101897.78;;;6.37;69.54
71666;BME280;59503;53.486;10.196;2023-03-04T12:40:41;101889.25;;;6.44;70.44
71666;BME280;59503;53.486;10.196;2023-03-04T12:43:18;101886.97;;;6.37;70.30
71666;BME280;59503;53.486;10.196;2023-03-04T12:48:44;101887.38;;;6.44;69.63
71666;BME280;59503;53.486;10.196;2023-03-04T12:54:21;101885.97;;;6.11;69.19
71666;BME280;59503;53.486;10.196;2023-03-04T12:57:16;101879.94;;;6.27;69.87
71666;BME280;59503;53.486;10.196;2023-03-04T12:59:49;101872.59;;;6.42;70.50
71666;BME280;59503;53.486;10.196;2023-03-04T13:08:36;101862.38;;;6.39;72.39
71666;BME280;59503;53.486;10.196;2023-03-04T13:14:03;101869.47;;;6.48;71.30
71666;BME280;59503;53.486;10.196;2023-03-04T13:18:55;101873.78;;;6.36;69.67
71666;BME280;59503;53.486;10.196;2023-03-04T13:21:27;101866.31;;;6.55;69.35
71666;BME280;59503;53.486;10.196;2023-03-04T13:23:53;101863.19;;;6.83;70.95
71666;BME280;59503;53.486;10.196;2023-03-04T13:28:54;101871.06;;;7.02;64.52
71666;BME280;59503;53.486;10.196;2023-03-04T13:34:51;101868.28;;;6.41;69.03
71666;BME280;59503;53.486;10.196;2023-03-04T13:42:44;101849.31;;;5.96;68.68
71666;BME280;59503;53.486;10.196;2023-03-04T13:45:30;101858.41;;;6.00;69.93
71666;BME280;59503;53.486;10.196;2023-03-04T13:47:56;101863.47;;;6.15;68.20
71666;BME280;59503;53.486;10.196;2023-03-04T13:50:27;101870.94;;;6.18;68.05
71666;BME280;59503;53.486;10.196;2023-03-04T13:52:57;101863.03;;;6.22;67.67
71666;BME280;59503;53.486;10.196;2023-03-04T13:55:37;101858.13;;;6.24;66.45
71666;BME280;59503;53.486;10.196;2023-03-04T13:58:19;101866.50;;;6.36;66.37
71666;BME280;59503;53.486;10.196;2023-03-04T14:00:52;101857.28;;;6.37;65.78
71666;BME280;59503;53.486;10.196;2023-03-04T14:03:23;101867.47;;;6.40;65.40
71666;BME280;59503;53.486;10.196;2023-03-04T14:08:43;101861.44;;;6.21;64.64
71666;BME280;59503;53.486;10.196;2023-03-04T14:11:12;101858.91;;;6.02;65.45
71666;BME280;59503;53.486;10.196;2023-03-04T14:13:38;101861.09;;;6.00;67.54
71666;BME280;59503;53.486;10.196;2023-03-04T14:16:03;101861.69;;;6.11;66.00
71666;BME280;59503;53.486;10.196;2023-03-04T14:18:29;101862.09;;;6.04;67.04
71666;BME280;59503;53.486;10.196;2023-03-04T14:20:56;101851.38;;;6.13;66.78
71666;BME280;59503;53.486;10.196;2023-03-04T14:25:48;101854.50;;;6.06;66.89
71666;BME280;59503;53.486;10.196;2023-03-04T14:28:19;101864.88;;;6.13;67.01
71666;BME280;59503;53.486;10.196;2023-03-04T14:30:52;101845.44;;;6.24;66.70